createdAt,value
2022-11-27T00:00:33.813Z,7.25
2022-11-27T00:06:26.375Z,7.57
2022-11-27T00:11:57.318Z,6.60
2022-11-27T00:17:28.540Z,6.75
2022-11-27T00:22:59.767Z,6.75
2022-11-27T00:28:32.117Z,7.00
2022-11-27T00:34:05.890Z,7.85
2022-11-27T00:39:36.985Z,6.18
2022-11-27T00:45:08.961Z,7.32
2022-11-27T00:50:40.384Z,7.63
2022-11-27T00:56:17.349Z,7.25
2022-11-27T01:01:49.332Z,8.00
2022-11-27T01:07:20.581Z,5.80
2022-11-27T01:12:51.935Z,6.88
2022-11-27T01:18:22.810Z,6.32
2022-11-27T01:23:54.596Z,5.78
2022-11-27T01:29:25.485Z,7.00
2022-11-27T01:34:56.819Z,6.90
2022-11-27T01:40:28.162Z,7.40
2022-11-27T01:45:59.335Z,8.27
2022-11-27T01:51:31.515Z,5.75
2022-11-27T01:57:07.005Z,5.18
2022-11-27T02:02:38.067Z,8.30
2022-11-27T02:08:11.230Z,7.13
2022-11-27T02:13:58.755Z,6.50
2022-11-27T02:20:12.139Z,6.57
2022-11-27T02:26:07.528Z,5.93
2022-11-27T02:32:00.231Z,6.05
2022-11-27T02:37:58.021Z,5.75
2022-11-27T02:43:40.508Z,4.80
2022-11-27T02:49:13.563Z,7.25
2022-11-27T02:54:44.986Z,6.93
2022-11-27T03:00:17.247Z,4.75
2022-11-27T03:05:50.911Z,7.40
2022-11-27T03:11:22.556Z,6.30
2022-11-27T03:17:18.531Z,6.45
2022-11-27T03:22:49.522Z,4.80
2022-11-27T03:28:21.520Z,6.43
2022-11-27T03:33:54.667Z,5.05
2022-11-27T03:39:26.717Z,6.70
2022-11-27T03:51:00.238Z,5.40
2022-11-27T03:56:40.395Z,5.38
2022-11-27T04:02:15.566Z,5.57
2022-11-27T04:07:47.501Z,4.45
2022-11-27T04:13:18.390Z,5.10
2022-11-27T04:18:49.626Z,5.65
2022-11-27T04:24:20.709Z,6.65
2022-11-27T04:29:52.082Z,4.93
2022-11-27T04:35:23.055Z,4.15
2022-11-27T04:40:54.935Z,4.75
2022-11-27T04:46:25.847Z,4.88
2022-11-27T04:51:57.031Z,4.90
2022-11-27T04:57:28.588Z,4.47
2022-11-27T05:03:00.110Z,4.00
2022-11-27T05:08:33.109Z,7.03
2022-11-27T05:14:20.974Z,5.77
2022-11-27T05:19:51.948Z,4.55
2022-11-27T05:25:23.234Z,4.40
2022-11-27T05:30:54.931Z,7.53
2022-11-27T05:36:26.399Z,5.22
2022-11-27T05:41:57.299Z,3.85
2022-11-27T05:47:28.377Z,5.93
2022-11-27T05:52:59.770Z,5.78
2022-11-27T05:58:31.443Z,5.43
2022-11-27T06:04:02.570Z,6.43
2022-11-27T06:09:33.736Z,6.13
2022-11-27T06:15:05.118Z,5.80
2022-11-27T06:20:40.835Z,6.38
2022-11-27T06:26:26.706Z,5.30
2022-11-27T06:31:58.285Z,5.70
2022-11-27T06:37:29.562Z,4.93
2022-11-27T06:43:00.895Z,4.70
2022-11-27T06:48:32.866Z,5.28
2022-11-27T06:54:04.164Z,4.97
2022-11-27T06:59:35.087Z,5.63
2022-11-27T07:05:06.432Z,5.15
2022-11-27T07:10:37.546Z,4.78
2022-11-27T07:16:10.730Z,6.28
2022-11-27T07:21:42.138Z,6.23
2022-11-27T07:27:13.579Z,5.50
2022-11-27T07:32:45.003Z,6.10
2022-11-27T07:38:16.111Z,5.15
2022-11-27T07:43:47.743Z,5.25
2022-11-27T07:49:19.121Z,5.70
2022-11-27T07:54:50.307Z,6.35
2022-11-27T08:00:21.847Z,6.18
2022-11-27T08:05:53.140Z,5.53
2022-11-27T08:11:35.657Z,6.53
2022-11-27T08:17:07.038Z,6.22
2022-11-27T08:22:37.921Z,6.95
2022-11-27T08:28:09.183Z,7.07
2022-11-27T08:33:41.160Z,6.03
2022-11-27T08:39:12.480Z,5.13
2022-11-27T08:44:43.552Z,5.75
2022-11-27T08:50:14.812Z,4.72
2022-11-27T08:55:46.568Z,6.88
2022-11-27T09:01:23.755Z,6.18
2022-11-27T09:06:58.362Z,5.75
2022-11-27T09:12:29.785Z,5.93
2022-11-27T09:18:00.654Z,6.68
2022-11-27T09:23:33.301Z,6.15
2022-11-27T09:29:04.572Z,6.05
2022-11-27T09:34:37.689Z,6.35
2022-11-27T09:40:14.411Z,6.57
2022-11-27T09:45:49.999Z,6.80
2022-11-27T09:52:06.239Z,7.18
2022-11-27T10:03:15.012Z,7.22
2022-11-27T10:09:14.436Z,7.30
2022-11-27T10:15:00.601Z,7.82
2022-11-27T10:20:39.956Z,7.53
2022-11-27T10:26:28.419Z,6.90
2022-11-27T10:32:54.751Z,9.13
2022-11-27T10:38:24.541Z,7.80
2022-11-27T10:43:58.158Z,7.20
2022-11-27T10:49:29.467Z,7.72
2022-11-27T10:55:03.986Z,6.00
2022-11-27T11:00:35.062Z,8.13
2022-11-27T11:06:21.348Z,7.50
2022-11-27T11:11:53.776Z,7.53
2022-11-27T11:17:34.909Z,7.50
2022-11-27T11:23:06.761Z,8.95
2022-11-27T11:28:47.625Z,7.72
2022-11-27T11:34:24.712Z,10.73
2022-11-27T11:40:02.538Z,8.40
2022-11-27T11:45:35.072Z,10.02
2022-11-27T11:51:17.237Z,10.63
2022-11-27T11:56:52.675Z,8.73
2022-11-27T12:02:59.260Z,10.55
2022-11-27T12:08:56.372Z,11.35
2022-11-27T12:14:40.242Z,10.52
2022-11-27T12:20:15.992Z,10.20
2022-11-27T12:26:07.384Z,8.55
2022-11-27T12:31:48.284Z,9.68
2022-11-27T12:37:19.603Z,9.73
2022-11-27T12:43:07.545Z,10.60
2022-11-27T12:48:45.942Z,9.85
2022-11-27T12:54:30.129Z,9.95
2022-11-27T13:00:06.061Z,10.35
2022-11-27T13:06:12.541Z,9.18
2022-11-27T13:11:43.692Z,10.25
2022-11-27T13:17:17.270Z,9.50
2022-11-27T13:22:48.903Z,9.45
2022-11-27T13:28:43.888Z,9.85
2022-11-27T13:34:21.212Z,11.57
2022-11-27T13:40:04.202Z,8.60
2022-11-27T13:45:37.199Z,10.10
2022-11-27T13:51:10.302Z,9.90
2022-11-27T13:56:41.414Z,9.55
2022-11-27T14:02:12.491Z,7.68
2022-11-27T14:07:46.969Z,8.60
2022-11-27T14:13:22.373Z,9.00
2022-11-27T14:18:59.058Z,8.90
2022-11-27T14:24:33.009Z,8.75
2022-11-27T14:30:25.826Z,9.48
2022-11-27T14:36:05.080Z,8.80
2022-11-27T14:41:36.212Z,7.93
2022-11-27T14:47:08.480Z,8.52
2022-11-27T14:52:40.727Z,9.15
2022-11-27T14:58:18.803Z,8.98
2022-11-27T15:04:05.726Z,9.55
2022-11-27T15:09:37.091Z,9.48
2022-11-27T15:15:21.107Z,8.98
2022-11-27T15:26:39.980Z,6.55
2022-11-27T15:32:23.795Z,10.65
2022-11-27T15:37:57.576Z,9.25
2022-11-27T15:43:28.671Z,8.73
2022-11-27T15:49:00.119Z,10.27
2022-11-27T15:54:31.182Z,9.75
2022-11-27T16:00:02.240Z,8.98
2022-11-27T16:05:43.026Z,7.70
2022-11-27T16:11:14.990Z,9.02
2022-11-27T16:16:46.301Z,8.30
2022-11-27T16:22:17.592Z,9.52
2022-11-27T16:27:48.864Z,8.35
2022-11-27T16:33:21.463Z,7.85
2022-11-27T16:38:54.578Z,7.55
2022-11-27T16:44:28.496Z,9.75
2022-11-27T16:49:59.597Z,7.55
2022-11-27T16:55:32.140Z,7.93
2022-11-27T17:01:11.039Z,8.80
2022-11-27T17:06:42.702Z,7.20
2022-11-27T17:12:13.930Z,8.48
2022-11-27T17:17:45.487Z,8.63
2022-11-27T17:23:16.618Z,8.27
2022-11-27T17:28:48.246Z,6.88
2022-11-27T17:34:20.733Z,7.78
2022-11-27T17:39:53.160Z,8.82
2022-11-27T17:45:24.026Z,8.13
2022-11-27T17:50:55.367Z,9.38
2022-11-27T17:56:27.779Z,7.70
2022-11-27T18:01:59.846Z,8.70
2022-11-27T18:07:31.339Z,8.40
2022-11-27T18:13:03.549Z,7.28
2022-11-27T18:18:35.943Z,7.80
2022-11-27T18:24:23.145Z,8.68
2022-11-27T18:29:54.935Z,7.22
2022-11-27T18:35:25.971Z,10.20
2022-11-27T18:41:08.345Z,9.25
2022-11-27T18:46:39.939Z,9.05
2022-11-27T18:52:11.932Z,8.48
2022-11-27T18:57:43.188Z,7.28
2022-11-27T19:03:15.746Z,7.88
2022-11-27T19:08:47.833Z,9.20
2022-11-27T19:14:19.507Z,10.50
2022-11-27T19:19:54.161Z,7.97
2022-11-27T19:25:26.340Z,8.73
2022-11-27T19:30:57.631Z,9.00
2022-11-27T19:36:30.393Z,9.70
2022-11-27T19:42:01.911Z,11.30
2022-11-27T19:47:33.690Z,9.70
2022-11-27T19:53:07.243Z,10.95
2022-11-27T19:58:38.757Z,9.43
2022-11-27T20:04:11.421Z,11.32
2022-11-27T20:09:42.761Z,11.65
2022-11-27T20:15:17.386Z,11.70
2022-11-27T20:20:48.167Z,11.80
2022-11-27T20:26:22.303Z,11.88
2022-11-27T20:31:53.651Z,10.88
2022-11-27T20:37:25.704Z,11.40
2022-11-27T20:42:59.764Z,10.77
2022-11-27T20:48:31.981Z,12.43
2022-11-27T20:54:03.531Z,10.73
2022-11-27T20:59:34.893Z,10.65
2022-11-27T21:05:06.870Z,10.10
2022-11-27T21:10:38.499Z,10.25
2022-11-27T21:16:13.632Z,10.57
2022-11-27T21:21:45.446Z,11.20
2022-11-27T21:27:16.846Z,9.50
2022-11-27T21:32:48.215Z,11.93
2022-11-27T21:38:19.283Z,12.52
2022-11-27T21:43:55.699Z,9.30
2022-11-27T21:49:26.899Z,10.75
2022-11-27T21:54:58.725Z,8.98
2022-11-27T22:00:29.671Z,9.65
2022-11-27T22:06:03.359Z,10.70
2022-11-27T22:11:34.815Z,13.35
2022-11-27T22:17:06.627Z,8.75
2022-11-27T22:22:38.057Z,12.27
2022-11-27T22:28:10.261Z,9.18
2022-11-27T22:33:43.156Z,8.55
2022-11-27T22:39:14.498Z,10.00
2022-11-27T22:44:45.751Z,7.72
2022-11-27T22:50:17.407Z,10.40
2022-11-27T22:55:48.450Z,8.98
2022-11-27T23:01:25.316Z,9.13
2022-11-27T23:06:56.987Z,8.10
2022-11-27T23:12:28.749Z,7.90
2022-11-27T23:17:59.854Z,9.98
2022-11-27T23:23:31.327Z,8.73
2022-11-27T23:29:03.555Z,8.73
2022-11-27T23:34:34.744Z,7.75
2022-11-27T23:40:07.125Z,8.93
2022-11-27T23:45:38.401Z,8.10
2022-11-27T23:51:15.905Z,7.70
2022-11-27T23:56:51.711Z,9.20
